Fulton, Kansas
Current Conditions -  °F | °C
As of 7:35 AM on Thursday 23 Oct 2014 (Local Time) from KPTS Reporting Station
Light Rain Light Rain  
Wind Chill: 58°   Ceiling: 10000
Heat Index: 58°   Visibility: 7mi
Dew Point: 58°   Wind: 3mph
Humidity: 98%   Direction: 190°S
Pressure: 30.13"   Gusts: NA
Location:  38.01°N, 94.72°W
Report Text: KPTS 231235Z AUTO 19003KT 7SM -RA SCT024 SCT034 OVC100 15/14 A3013 RMK AO2 P0001 T01470144
Loading
Personal Weather Stations






























Interactive Weather Map
Tropical Storm Tracking
New forecast layout! Learn more

10-Day Weather Forecast

Advertisements
Track Severe Weather on mobile